Stations météo

Publicité
Grenoble le Versoud, France (7487): Température de l'air & dewpoint: 10.12.2018 13:00:00 - 16.12.2018 13:00:00 (CET)Grenoble le Versoud, France (7487): Vitesse du vent & gusts: 10.12.2018 13:00:00 - 16.12.2018 13:00:00 (CET)Grenoble le Versoud, France (7487): Direction du vent: 10.12.2018 13:00:00 - 16.12.2018 13:00:00 (CET)Grenoble le Versoud, France (7487): reduced air pressure: 10.12.2018 13:00:00 - 16.12.2018 13:00:00 (CET)Grenoble le Versoud, France (7487): Quantités de précipitations: 10.12.2018 13:00:00 - 16.12.2018 13:00:00 (CET)
Date & Time tt [°C] td [°C] ff [km/h] ff [knt] fx [km/h] fx [knt] dd ppp [hPa] rr [mm]
16.12.2018 13:00:00 - - - - - - - - -
16.12.2018 12:00:00 4,5 3,8 8 4 15 8 S 1016,0 0,2
16.12.2018 11:00:00 4,1 3,2 0 0 28 15 N 1018,6 0,2
16.12.2018 10:00:00 3,9 3,3 8 4 15 8 SSW 1017,2 0,2
16.12.2018 09:00:00 3,0 2,3 0 0 11 6 N 1018,3 0,4
16.12.2018 08:00:00 2,6 2,0 9 5 16 9 NNE 1017,7 0,2
16.12.2018 07:00:00 2,4 1,8 9 5 16 9 NNE 1017,1 -
16.12.2018 06:00:00 2,3 1,7 5 3 11 6 NE 1018,5 0,6
16.12.2018 05:00:00 2,0 1,4 4 2 9 5 E 1018,3 2,0
16.12.2018 04:00:00 1,8 1,2 4 2 11 6 NW 1018,6 3,0
16.12.2018 03:00:00 1,7 0,8 2 1 9 5 N 1019,1 2,0
16.12.2018 02:00:00 1,7 0,7 5 3 9 5 ENE 1019,3 2,0
16.12.2018 01:00:00 1,8 0,5 4 2 8 4 N 1019,6 -
16.12.2018 00:00:00 1,8 0,3 5 3 9 5 NE 1020,3 0,6
15.12.2018 23:00:00 1,8 0,0 5 3 8 4 NE 1020,6 0,8
15.12.2018 22:00:00 2,9 -0,6 0 0 8 4 N 1020,4 0,0
15.12.2018 21:00:00 3,0 -0,5 5 3 8 4 NNE 1020,5 0,0
15.12.2018 20:00:00 3,1 -1,7 0 0 4 2 N 1021,0 0,0
15.12.2018 19:00:00 2,9 -0,6 0 0 4 2 N 1021,1 -
15.12.2018 18:00:00 3,4 -2,4 0 0 5 3 N 1021,7 0,0
15.12.2018 17:00:00 3,5 -1,9 0 0 5 3 N 1021,7 0,0
15.12.2018 16:00:00 3,8 -2,8 4 2 5 3 N 1022,3 0,0
15.12.2018 15:00:00 4,0 -3,3 0 0 4 2 N 1022,0 0,0
15.12.2018 14:00:00 4,3 -3,7 0 0 9 5 N 1021,8 0,0
15.12.2018 13:00:00 4,9 -2,2 0 0 8 4 N 1022,8 -
15.12.2018 12:00:00 3,6 -2,0 0 0 4 2 N 1023,6 0,0
15.12.2018 11:00:00 1,8 -2,7 2 1 8 4 E 1024,2 0,0
15.12.2018 10:00:00 1,3 -2,6 5 3 9 5 WSW 1023,9 0,0
15.12.2018 09:00:00 0,8 -3,0 0 0 5 3 N 1023,3 0,0
15.12.2018 08:00:00 0,8 -3,0 5 3 9 5 WSW 1023,6 0,0
15.12.2018 07:00:00 0,8 -2,6 0 0 5 3 N 1023,0 -
15.12.2018 06:00:00 0,7 -2,9 4 2 13 7 WNW 1022,4 0,0
15.12.2018 05:00:00 0,8 -2,6 5 3 11 6 WSW 1022,5 0,0
15.12.2018 04:00:00 0,9 -2,9 5 3 11 6 W 1022,6 0,0
15.12.2018 03:00:00 1,2 -2,7 4 2 9 5 W 1022,6 0,0
15.12.2018 02:00:00 1,4 -2,6 5 3 9 5 W 1022,7 0,0
15.12.2018 01:00:00 1,6 -2,4 4 2 9 5 WNW 1022,2 -
15.12.2018 00:00:00 1,9 -2,1 5 3 9 5 W 1021,5 0,0
14.12.2018 23:00:00 2,1 -1,7 0 0 9 5 N 1021,1 0,0
14.12.2018 22:00:00 2,2 -1,6 4 2 8 4 WNW 1021,6 0,0
14.12.2018 21:00:00 2,6 -1,2 4 2 15 8 WNW 1021,2 0,0
14.12.2018 20:00:00 3,0 -1,2 9 5 15 8 WSW 1020,8 0,0
14.12.2018 19:00:00 3,4 -0,4 2 1 8 4 WSW 1020,1 -
14.12.2018 18:00:00 3,7 -1,3 0 0 18 10 N 1019,7 0,0
14.12.2018 17:00:00 3,9 -0,9 15 8 21 11 SW 1018,3 0,0
14.12.2018 16:00:00 5,2 -0,4 4 2 5 3 SSW 1017,5 0,0
14.12.2018 15:00:00 6,5 -0,7 2 1 8 4 WSW 1016,7 0,0
14.12.2018 14:00:00 6,6 -0,9 2 1 9 5 SW 1016,4 0,0
14.12.2018 13:00:00 4,9 -0,9 2 1 8 4 N 1016,7 -
14.12.2018 12:00:00 3,3 -1,7 0 0 5 3 N 1017,2 0,0
14.12.2018 11:00:00 2,2 -1,4 0 0 5 3 N 1017,5 0,0
14.12.2018 10:00:00 0,4 -0,9 2 1 5 3 S 1016,9 0,0
14.12.2018 09:00:00 -1,0 -2,0 0 0 5 3 N 1016,2 0,0
14.12.2018 08:00:00 -1,6 -2,7 0 0 4 2 N 1015,6 0,0
14.12.2018 07:00:00 -1,0 -2,3 0 0 5 3 N 1015,0 -
14.12.2018 06:00:00 -0,8 -1,9 2 1 4 2 NE 1014,6 0,0
14.12.2018 05:00:00 -0,2 -2,6 2 1 5 3 SE 1014,1 0,0
14.12.2018 04:00:00 1,0 -1,6 0 0 5 3 N 1014,0 0,0
14.12.2018 03:00:00 1,1 -1,6 0 0 5 3 N 1013,9 0,0
14.12.2018 02:00:00 0,8 -1,8 0 0 9 5 N 1013,5 0,0
14.12.2018 01:00:00 0,8 -1,9 0 0 5 3 N 1013,4 -
14.12.2018 00:00:00 1,5 -2,3 2 1 9 5 E 1013,0 0,0
13.12.2018 23:00:00 2,1 -1,9 4 2 8 4 NE 1013,0 0,0
13.12.2018 22:00:00 2,3 -2,2 4 2 11 6 N 1012,5 0,0
13.12.2018 21:00:00 2,4 -1,8 5 3 9 5 NE 1012,1 0,0
13.12.2018 20:00:00 2,5 -2,4 5 3 13 7 N 1011,7 0,0
13.12.2018 19:00:00 2,7 -2,6 9 5 22 12 NE 1011,0 -
13.12.2018 18:00:00 2,7 -3,0 4 2 16 9 NE 1011,2 0,0
13.12.2018 17:00:00 2,5 -3,0 8 4 16 9 NE 1010,7 0,0
13.12.2018 16:00:00 2,8 -3,1 15 8 22 12 NNE 1010,9 0,0
13.12.2018 15:00:00 2,8 -3,3 9 5 29 16 NE 1010,5 0,0
13.12.2018 14:00:00 3,0 -3,4 18 10 34 18 NE 1010,8 0,0
13.12.2018 13:00:00 2,7 -3,0 15 8 24 13 NNE 1011,4 -
13.12.2018 12:00:00 2,4 -2,7 15 8 21 11 NNE 1012,3 0,0
13.12.2018 11:00:00 1,9 -3,6 13 7 22 12 NNE 1013,4 0,0
13.12.2018 10:00:00 0,7 -4,2 9 5 21 11 NNE 1013,6 0,0
13.12.2018 09:00:00 0,2 -3,7 11 6 24 13 NE 1014,0 0,0
13.12.2018 08:00:00 0,1 -4,2 15 8 26 14 NE 1014,2 0,0
13.12.2018 07:00:00 0,2 -4,3 13 7 24 13 NNE 1014,5 -
13.12.2018 06:00:00 0,1 -3,5 9 5 22 12 NNE 1014,6 0,0
13.12.2018 05:00:00 0,1 -3,5 9 5 18 10 ENE 1014,9 0,0
13.12.2018 04:00:00 0,4 -3,3 9 5 15 8 NE 1015,5 0,0
13.12.2018 03:00:00 0,3 -3,1 9 5 21 11 NNE 1016,1 0,0
13.12.2018 02:00:00 0,7 -2,7 13 7 21 11 NE 1016,5 0,0
13.12.2018 01:00:00 0,8 -2,6 11 6 18 10 NE 1016,9 -
13.12.2018 00:00:00 1,4 -2,6 5 3 16 9 ENE 1017,8 0,0
12.12.2018 23:00:00 1,5 -2,1 9 5 15 8 NNE 1018,0 0,0
12.12.2018 22:00:00 1,9 -1,9 5 3 13 7 NE 1018,1 0,0
12.12.2018 21:00:00 1,8 -1,5 4 2 11 6 N 1018,4 0,0
12.12.2018 20:00:00 2,2 -1,4 8 4 9 5 NNE 1018,4 0,0
12.12.2018 19:00:00 2,0 -1,4 0 0 4 2 N 1018,6 -
12.12.2018 18:00:00 2,6 -2,3 2 1 9 5 ENE 1019,1 0,0
12.12.2018 17:00:00 3,2 -3,0 4 2 11 6 ENE 1019,1 0,0
12.12.2018 16:00:00 3,9 -2,7 9 5 15 8 NE 1019,4 0,0
12.12.2018 15:00:00 4,1 -1,9 8 4 11 6 NNE 1019,5 0,0
12.12.2018 14:00:00 4,1 -2,1 8 4 13 7 NNE 1020,0 0,0
12.12.2018 13:00:00 3,7 -1,7 4 2 9 5 ENE 1020,7 -
12.12.2018 12:00:00 1,2 -1,9 0 0 5 3 N 1021,8 0,0
12.12.2018 11:00:00 0,3 -1,5 2 1 5 3 NE 1022,8 0,0
12.12.2018 10:00:00 -0,9 -1,7 4 2 5 3 NNE 1023,3 0,0
12.12.2018 09:00:00 -0,9 -1,7 0 0 5 3 N 1023,0 0,0
12.12.2018 08:00:00 -1,3 -2,4 0 0 2 1 N 1022,6 0,0
12.12.2018 07:00:00 -0,7 -1,5 0 0 5 3 N 1022,6 -
12.12.2018 06:00:00 -1,2 -2,5 0 0 5 3 N 1022,6 0,0
12.12.2018 05:00:00 0,0 -1,3 5 3 9 5 ENE 1022,8 0,0
12.12.2018 04:00:00 0,1 -0,8 4 2 13 7 E 1023,1 0,0
12.12.2018 03:00:00 -1,2 -2,0 2 1 5 3 ENE 1023,9 0,0
12.12.2018 02:00:00 -0,8 -1,5 4 2 5 3 NE 1023,6 0,0
12.12.2018 01:00:00 -1,3 -2,3 0 0 8 4 N 1023,7 -
12.12.2018 00:00:00 0,3 -0,4 0 0 9 5 N 1023,8 0,0
11.12.2018 23:00:00 0,8 0,1 4 2 5 3 NE 1023,4 0,0
11.12.2018 22:00:00 0,9 0,0 4 2 5 3 W 1022,9 0,0
11.12.2018 21:00:00 0,7 -0,2 0 0 5 3 N 1022,8 0,0
11.12.2018 20:00:00 1,5 0,5 0 0 4 2 N 1022,7 0,0
11.12.2018 19:00:00 1,9 0,1 0 0 9 5 N 1022,4 -
11.12.2018 18:00:00 3,3 1,2 2 1 5 3 E 1022,4 0,0
11.12.2018 17:00:00 5,5 1,6 4 2 21 11 S 1022,1 0,0
11.12.2018 16:00:00 7,4 1,5 16 9 29 16 NE 1022,2 0,0
11.12.2018 15:00:00 8,2 1,6 16 9 29 16 NE 1022,1 0,0
11.12.2018 14:00:00 8,7 2,0 13 7 24 13 NE 1022,3 0,0
11.12.2018 13:00:00 8,6 3,6 8 4 18 10 E 1023,0 -
11.12.2018 12:00:00 7,2 3,6 13 7 21 11 NNE 1023,3 0,0
11.12.2018 11:00:00 6,6 2,7 4 2 15 8 SSE 1023,8 0,0
11.12.2018 10:00:00 3,9 2,1 4 2 16 9 NNE 1024,1 -
11.12.2018 09:00:00 3,6 2,0 5 3 21 11 WSW 1024,4 0,0
11.12.2018 08:00:00 4,1 2,4 16 9 39 21 NE 1024,2 0,0
11.12.2018 07:00:00 4,1 2,6 26 14 39 21 NNE 1024,2 -
11.12.2018 06:00:00 4,3 2,6 22 12 35 19 NNE 1024,5 0,0
11.12.2018 05:00:00 4,6 2,8 15 8 31 17 NNE 1024,6 0,0
11.12.2018 04:00:00 5,0 3,0 21 11 34 18 NNE 1024,9 0,0
11.12.2018 03:00:00 5,1 3,3 18 10 34 18 NNE 1025,5 0,0
11.12.2018 02:00:00 4,3 3,6 9 5 21 11 NE 1025,8 0,0
11.12.2018 01:00:00 3,8 3,2 5 3 8 4 SSW 1026,3 -
11.12.2018 00:00:00 4,6 4,0 4 2 8 4 SW 1027,0 0,0
10.12.2018 23:00:00 4,8 4,2 0 0 8 4 N 1027,0 0,0
10.12.2018 22:00:00 5,0 4,4 2 1 13 7 W 1027,3 -
10.12.2018 21:00:00 4,9 4,2 4 2 11 6 SSE 1027,7 0,0
10.12.2018 20:00:00 5,5 4,9 5 3 5 3 ENE 1028,0 0,0
10.12.2018 19:00:00 5,0 4,3 0 0 5 3 N 1027,9 -
10.12.2018 18:00:00 5,8 4,8 2 1 4 2 ESE 1027,6 0,0
10.12.2018 17:00:00 6,6 4,9 2 1 8 4 S 1028,1 0,8
10.12.2018 16:00:00 6,9 5,4 5 3 11 6 W 1028,0 0,0
10.12.2018 15:00:00 7,0 5,3 5 3 8 4 SW 1028,0 0,0
10.12.2018 14:00:00 6,9 4,9 4 2 9 5 ESE 1028,2 0,0
10.12.2018 13:00:00 6,6 4,9 5 3 16 9 NW 1028,7 -

tt = Température de l'air
td = dewpoint
ff = Vitesse du vent
fx = gusts
dd = Direction du vent
ppp = reduced air pressure
rr = Quantités de précipitations

stations d'obs. à proximité